createdAt,value
2022-11-04T00:02:04.218Z,97139.66
2022-11-04T00:04:31.001Z,97133.59
2022-11-04T00:06:58.077Z,97128.19
2022-11-04T00:09:30.398Z,97132.06
2022-11-04T00:12:16.059Z,97126.81
2022-11-04T00:14:42.604Z,97128.06
2022-11-04T00:17:22.139Z,97138.91
2022-11-04T00:20:11.828Z,97141.53
2022-11-04T00:22:58.308Z,97145.13
2022-11-04T00:25:43.701Z,97137.38
2022-11-04T00:28:33.922Z,97143.91
2022-11-04T00:31:22.185Z,97149.47
2022-11-04T00:33:50.087Z,97144.22
2022-11-04T00:36:17.245Z,97142.75
2022-11-04T00:38:43.659Z,97138.16
2022-11-04T00:41:29.799Z,97133.50
2022-11-04T00:44:01.277Z,97131.66
2022-11-04T00:46:29.589Z,97136.94
2022-11-04T00:48:56.514Z,97133.19
2022-11-04T00:51:23.202Z,97136.06
2022-11-04T00:53:50.406Z,97134.44
2022-11-04T00:56:16.943Z,97128.09
2022-11-04T00:58:43.624Z,97138.00
2022-11-04T01:01:19.259Z,97132.13
2022-11-04T01:03:50.606Z,97137.00
2022-11-04T01:06:18.254Z,97130.09
2022-11-04T01:08:44.997Z,97143.19
2022-11-04T01:11:11.846Z,97137.44
2022-11-04T01:13:39.836Z,97147.00
2022-11-04T01:16:09.713Z,97146.66
2022-11-04T01:18:36.295Z,97143.94
2022-11-04T01:21:04.945Z,97131.91
2022-11-04T01:23:31.489Z,97142.06
2022-11-04T01:25:57.924Z,97144.31
2022-11-04T01:28:24.334Z,97143.88
2022-11-04T01:30:50.770Z,97148.81
2022-11-04T01:33:17.204Z,97144.81
2022-11-04T01:35:43.649Z,97144.81
2022-11-04T01:38:10.511Z,97158.34
2022-11-04T01:40:38.912Z,97145.06
2022-11-04T01:43:14.636Z,97150.56
2022-11-04T01:45:45.113Z,97150.66
2022-11-04T01:48:27.137Z,97155.34
2022-11-04T01:50:54.797Z,97158.28
2022-11-04T01:53:27.107Z,97135.19
2022-11-04T01:55:57.796Z,97147.13
2022-11-04T01:58:28.861Z,97145.28
2022-11-04T02:00:55.410Z,97144.03
2022-11-04T02:03:29.904Z,97142.19
2022-11-04T02:05:57.411Z,97143.75
2022-11-04T02:08:25.081Z,97140.03
2022-11-04T02:11:00.559Z,97140.56
2022-11-04T02:13:28.309Z,97144.22
2022-11-04T02:15:57.685Z,97146.06
2022-11-04T02:18:49.530Z,97150.56
2022-11-04T02:21:29.826Z,97162.41
2022-11-04T02:24:28.772Z,97177.16
2022-11-04T02:27:16.677Z,97176.41
2022-11-04T02:30:09.863Z,97184.19
2022-11-04T02:32:58.131Z,97179.47
2022-11-04T02:35:47.703Z,97177.31
2022-11-04T02:38:24.404Z,97190.63
2022-11-04T02:41:09.191Z,97187.75
2022-11-04T02:43:47.742Z,97200.34
2022-11-04T02:46:38.209Z,97198.09
2022-11-04T02:49:12.288Z,97205.94
2022-11-04T02:51:49.837Z,97207.75
2022-11-04T02:54:54.694Z,97209.31
2022-11-04T02:57:27.433Z,97211.03
2022-11-04T02:59:56.758Z,97209.31
2022-11-04T03:02:28.966Z,97199.56
2022-11-04T03:04:57.379Z,97198.31
2022-11-04T03:07:28.822Z,97198.66
2022-11-04T03:10:00.935Z,97201.44
2022-11-04T03:12:32.816Z,97198.56
2022-11-04T03:15:05.547Z,97197.09
2022-11-04T03:17:38.292Z,97200.22
2022-11-04T03:20:09.898Z,97206.34
2022-11-04T03:22:37.799Z,97203.91
2022-11-04T03:25:06.401Z,97220.53
2022-11-04T03:27:38.944Z,97220.94
2022-11-04T03:30:19.420Z,97224.09
2022-11-04T03:33:01.292Z,97233.22
2022-11-04T03:35:28.874Z,97237.50
2022-11-04T03:37:55.446Z,97236.84
2022-11-04T03:40:22.617Z,97242.59
2022-11-04T03:42:57.648Z,97240.47
2022-11-04T03:45:24.495Z,97240.06
2022-11-04T03:47:51.730Z,97252.41
2022-11-04T03:50:24.563Z,97253.34
2022-11-04T03:52:51.102Z,97245.06
2022-11-04T03:55:17.655Z,97242.16
2022-11-04T03:58:03.667Z,97254.25
2022-11-04T04:00:36.026Z,97243.75
2022-11-04T04:03:24.588Z,97240.31
2022-11-04T04:06:03.112Z,97251.28
2022-11-04T04:08:43.778Z,97245.72
2022-11-04T04:11:16.213Z,97244.31
2022-11-04T04:13:53.012Z,97233.56
2022-11-04T04:16:31.594Z,97244.88
2022-11-04T04:19:03.409Z,97239.19
2022-11-04T04:21:36.054Z,97231.44
2022-11-04T04:24:25.986Z,97242.28
2022-11-04T04:27:13.464Z,97241.47
2022-11-04T04:29:43.132Z,97257.69
2022-11-04T04:32:10.244Z,97265.06
2022-11-04T04:34:37.606Z,97273.63
2022-11-04T04:37:12.032Z,97270.56
2022-11-04T04:40:02.157Z,97271.09
2022-11-04T04:42:52.068Z,97285.09
2022-11-04T04:45:22.973Z,97275.88
2022-11-04T04:47:49.807Z,97271.34
2022-11-04T04:50:19.172Z,97272.19
2022-11-04T04:52:48.360Z,97275.16
2022-11-04T04:55:16.478Z,97276.78
2022-11-04T04:57:42.959Z,97283.25
2022-11-04T05:00:13.811Z,97295.59
2022-11-04T05:02:40.408Z,97309.16
2022-11-04T05:05:07.682Z,97315.50
2022-11-04T05:07:34.159Z,97319.50
2022-11-04T05:10:00.620Z,97314.16
2022-11-04T05:12:47.003Z,97319.97
2022-11-04T05:15:13.630Z,97321.66
2022-11-04T05:17:40.110Z,97327.19
2022-11-04T05:20:07.582Z,97329.03
2022-11-04T05:22:34.060Z,97335.84
2022-11-04T05:25:00.572Z,97331.56
2022-11-04T05:27:27.026Z,97336.38
2022-11-04T05:29:53.483Z,97326.78
2022-11-04T05:32:19.921Z,97329.41
2022-11-04T05:34:47.777Z,97330.66
2022-11-04T05:37:14.265Z,97328.81
2022-11-04T05:39:40.687Z,97334.91
2022-11-04T05:42:07.094Z,97347.75
2022-11-04T05:44:33.517Z,97346.41
2022-11-04T05:46:59.932Z,97357.78
2022-11-04T05:49:26.420Z,97349.03
2022-11-04T05:51:52.845Z,97353.97
2022-11-04T05:54:19.361Z,97358.56
2022-11-04T05:56:45.813Z,97360.41
2022-11-04T05:59:12.302Z,97355.25
2022-11-04T06:01:41.814Z,97361.44
2022-11-04T06:04:14.989Z,97357.84
2022-11-04T06:06:41.771Z,97371.16
2022-11-04T06:09:08.355Z,97378.09
2022-11-04T06:11:35.985Z,97382.38
2022-11-04T06:14:02.881Z,97383.34
2022-11-04T06:16:29.572Z,97389.66
2022-11-04T06:18:59.966Z,97387.69
2022-11-04T06:21:32.279Z,97386.22
2022-11-04T06:23:59.705Z,97382.34
2022-11-04T06:26:28.703Z,97380.72
2022-11-04T06:28:55.794Z,97381.34
2022-11-04T06:31:22.418Z,97380.34
2022-11-04T06:33:49.201Z,97382.44
2022-11-04T06:36:16.651Z,97385.75
2022-11-04T06:38:43.974Z,97377.09
2022-11-04T06:41:17.528Z,97387.03
2022-11-04T06:43:44.244Z,97394.91
2022-11-04T06:46:37.692Z,97398.72
2022-11-04T06:49:05.787Z,97401.69
2022-11-04T06:51:32.781Z,97394.47
2022-11-04T06:53:59.517Z,97393.56
2022-11-04T06:56:26.024Z,97399.56
2022-11-04T06:58:54.730Z,97420.63
2022-11-04T07:01:23.216Z,97425.91
2022-11-04T07:03:51.527Z,97430.31
2022-11-04T07:06:19.320Z,97431.34
2022-11-04T07:08:46.686Z,97426.06
2022-11-04T07:11:13.849Z,97442.56
2022-11-04T07:13:41.184Z,97451.22
2022-11-04T07:16:09.231Z,97451.28
2022-11-04T07:18:36.393Z,97457.19
2022-11-04T07:21:08.786Z,97460.75
2022-11-04T07:23:36.418Z,97452.31
2022-11-04T07:26:05.367Z,97446.81
2022-11-04T07:28:32.866Z,97438.19
2022-11-04T07:31:01.076Z,97432.94
2022-11-04T07:33:28.188Z,97442.44
2022-11-04T07:35:58.129Z,97458.97
2022-11-04T07:38:25.366Z,97464.16
2022-11-04T07:40:51.869Z,97464.91
2022-11-04T07:43:18.558Z,97468.31
2022-11-04T07:45:45.061Z,97466.75
2022-11-04T07:48:11.811Z,97474.31
2022-11-04T07:50:40.515Z,97484.09
2022-11-04T07:53:07.899Z,97491.03
2022-11-04T07:55:42.941Z,97493.13
2022-11-04T07:58:10.076Z,97501.19
2022-11-04T08:00:36.518Z,97505.59
2022-11-04T08:03:03.123Z,97509.94
2022-11-04T08:05:29.617Z,97514.41
2022-11-04T08:07:57.729Z,97511.03
2022-11-04T08:10:24.286Z,97518.81
2022-11-04T08:12:52.418Z,97517.22
2022-11-04T08:15:18.979Z,97516.38
2022-11-04T08:17:45.554Z,97510.34
2022-11-04T08:20:12.543Z,97510.34
2022-11-04T08:22:39.244Z,97507.47
2022-11-04T08:25:06.390Z,97502.63
2022-11-04T08:27:34.384Z,97498.38
2022-11-04T08:30:01.067Z,97489.69
2022-11-04T08:32:28.096Z,97492.50
2022-11-04T08:34:54.830Z,97491.63
2022-11-04T08:37:21.499Z,97470.53
2022-11-04T08:39:48.268Z,97453.63
2022-11-04T08:42:15.363Z,97436.09
2022-11-04T08:44:43.056Z,97427.00
2022-11-04T08:47:09.663Z,97420.34
2022-11-04T08:49:40.066Z,97409.69
2022-11-04T08:52:06.762Z,97398.13
2022-11-04T08:54:33.474Z,97405.69
2022-11-04T08:57:00.303Z,97402.44
2022-11-04T08:59:27.318Z,97399.75
2022-11-04T09:01:54.172Z,97386.44
2022-11-04T09:04:20.920Z,97398.25
2022-11-04T09:06:47.813Z,97406.97
2022-11-04T09:09:16.683Z,97416.97
2022-11-04T09:11:45.029Z,97419.69
2022-11-04T09:14:12.384Z,97419.69
2022-11-04T09:16:40.471Z,97435.88
2022-11-04T09:19:07.488Z,97442.69
2022-11-04T09:21:34.390Z,97456.69
2022-11-04T09:24:01.039Z,97464.66
2022-11-04T09:26:28.367Z,97467.69
2022-11-04T09:28:56.385Z,97485.44
2022-11-04T09:31:23.874Z,97495.13
2022-11-04T09:33:51.126Z,97506.72
2022-11-04T09:36:17.839Z,97501.31
2022-11-04T09:38:45.209Z,97500.53
2022-11-04T09:41:28.548Z,97493.03
2022-11-04T09:44:02.279Z,97498.66
2022-11-04T09:46:33.076Z,97495.78
2022-11-04T09:49:03.553Z,97499.84
2022-11-04T09:51:53.038Z,97507.09
2022-11-04T09:54:27.067Z,97509.88
2022-11-04T09:56:57.610Z,97512.56
2022-11-04T09:59:30.599Z,97509.94
2022-11-04T10:02:20.701Z,97501.94
2022-11-04T10:05:04.881Z,97502.53
2022-11-04T10:07:55.854Z,97493.72
2022-11-04T10:10:37.620Z,97495.50
2022-11-04T10:13:25.091Z,97489.34
2022-11-04T10:16:03.743Z,97486.59
2022-11-04T10:18:42.350Z,97485.69
2022-11-04T10:21:36.029Z,97490.31
2022-11-04T10:24:31.836Z,97479.50
2022-11-04T10:27:03.662Z,97480.34
2022-11-04T10:29:38.588Z,97478.25
2022-11-04T10:32:19.535Z,97479.53
2022-11-04T10:34:58.996Z,97479.78
2022-11-04T10:37:26.809Z,97479.88
2022-11-04T10:40:05.981Z,97473.22
2022-11-04T10:42:33.147Z,97478.56
2022-11-04T10:44:59.711Z,97466.56
2022-11-04T10:47:39.769Z,97458.75
2022-11-04T10:50:29.906Z,97459.25
2022-11-04T10:53:12.814Z,97458.75
2022-11-04T10:56:22.386Z,97460.22
2022-11-04T10:58:49.133Z,97468.22
2022-11-04T11:01:26.481Z,97476.38
2022-11-04T11:03:53.498Z,97477.41
2022-11-04T11:06:30.209Z,97476.88
2022-11-04T11:09:15.137Z,97479.19
2022-11-04T11:11:52.165Z,97492.09
2022-11-04T11:14:27.732Z,97487.47
2022-11-04T11:16:58.483Z,97501.53
2022-11-04T11:19:25.664Z,97490.16
2022-11-04T11:21:57.390Z,97495.19
2022-11-04T11:24:26.808Z,97491.38
2022-11-04T11:26:56.571Z,97486.59
2022-11-04T11:29:29.627Z,97476.00
2022-11-04T11:31:58.546Z,97473.25
2022-11-04T11:34:47.244Z,97482.56
2022-11-04T11:37:22.898Z,97474.81
2022-11-04T11:39:49.704Z,97470.59
2022-11-04T11:42:16.772Z,97469.91
2022-11-04T11:44:49.914Z,97468.50
2022-11-04T11:47:25.769Z,97470.59
2022-11-04T11:50:34.100Z,97477.53
2022-11-04T11:53:24.351Z,97476.13
2022-11-04T11:56:10.290Z,97477.22
2022-11-04T12:01:47.054Z,97478.66
2022-11-04T12:09:57.861Z,97484.06
2022-11-04T12:12:36.390Z,97485.06
2022-11-04T12:15:30.839Z,97487.19
2022-11-04T12:18:23.802Z,97484.50
2022-11-04T12:20:55.492Z,97487.47
2022-11-04T12:23:40.715Z,97486.22
2022-11-04T12:26:19.379Z,97494.84
2022-11-04T12:29:07.282Z,97485.25
2022-11-04T12:32:15.378Z,97480.22
2022-11-04T12:35:10.289Z,97490.59
2022-11-04T12:38:01.752Z,97488.59
2022-11-04T12:40:32.449Z,97494.00
2022-11-04T12:43:17.647Z,97497.50
2022-11-04T12:45:52.883Z,97484.38
2022-11-04T12:49:16.953Z,97473.34
2022-11-04T12:52:02.256Z,97473.19
2022-11-04T12:54:45.855Z,97473.81
2022-11-04T12:57:59.617Z,97486.81
2022-11-04T13:00:28.361Z,97488.03
2022-11-04T13:03:04.343Z,97491.25
2022-11-04T13:05:53.094Z,97497.28
2022-11-04T13:08:44.607Z,97502.56
2022-11-04T13:11:27.940Z,97500.69
2022-11-04T13:14:29.814Z,97497.63
2022-11-04T13:17:00.640Z,97504.34
2022-11-04T13:19:34.574Z,97499.63
2022-11-04T13:22:16.050Z,97504.25
2022-11-04T13:25:21.159Z,97500.69
2022-11-04T13:27:48.385Z,97503.31
2022-11-04T13:30:30.242Z,97506.44
2022-11-04T13:33:25.682Z,97514.56
2022-11-04T13:36:03.625Z,97514.16
2022-11-04T13:38:46.623Z,97515.22
2022-11-04T13:41:39.338Z,97520.41
2022-11-04T13:44:16.431Z,97519.13
2022-11-04T13:46:50.683Z,97522.81
2022-11-04T13:49:30.534Z,97530.47
2022-11-04T13:52:14.456Z,97538.69
2022-11-04T13:54:45.804Z,97539.81
2022-11-04T13:57:20.027Z,97544.81
2022-11-04T14:00:15.621Z,97541.47
2022-11-04T14:03:21.488Z,97541.16
2022-11-04T14:06:00.316Z,97550.94
2022-11-04T14:08:26.925Z,97548.72
2022-11-04T14:10:53.418Z,97552.81
2022-11-04T14:13:37.535Z,97557.31
2022-11-04T14:16:33.140Z,97552.75
2022-11-04T14:19:42.187Z,97563.06
2022-11-04T14:22:15.053Z,97570.75
2022-11-04T14:24:41.837Z,97571.03
2022-11-04T14:27:28.228Z,97570.72
2022-11-04T14:29:54.977Z,97571.66
2022-11-04T14:32:27.271Z,97570.28
2022-11-04T14:35:04.627Z,97575.44
2022-11-04T14:37:35.433Z,97569.44
2022-11-04T14:40:06.504Z,97568.75
2022-11-04T14:42:55.870Z,97567.84
2022-11-04T14:45:25.698Z,97570.94
2022-11-04T14:48:00.083Z,97574.47
2022-11-04T14:50:28.544Z,97572.91
2022-11-04T14:53:03.711Z,97575.72
2022-11-04T14:55:32.390Z,97571.59
2022-11-04T14:58:22.035Z,97571.84
2022-11-04T15:00:48.694Z,97582.41
2022-11-04T15:04:09.277Z,97579.91
2022-11-04T15:06:10.228Z,97582.81
2022-11-04T15:08:44.011Z,97586.66
2022-11-04T15:11:16.654Z,97593.88
2022-11-04T15:13:46.071Z,97599.84
2022-11-04T15:16:28.046Z,97602.16
2022-11-04T15:18:58.693Z,97608.56
2022-11-04T15:21:26.052Z,97607.72
2022-11-04T15:23:54.267Z,97614.81
2022-11-04T15:26:30.832Z,97614.19
2022-11-04T15:28:59.862Z,97623.94
2022-11-04T15:31:28.745Z,97620.66
2022-11-04T15:34:01.642Z,97619.19
2022-11-04T15:36:31.965Z,97617.63
2022-11-04T15:39:02.691Z,97617.91
2022-11-04T15:41:49.822Z,97604.22
2022-11-04T15:44:24.045Z,97606.19
2022-11-04T15:46:53.734Z,97603.72
2022-11-04T15:49:24.476Z,97608.16
2022-11-04T15:51:54.204Z,97615.53
2022-11-04T15:54:26.951Z,97615.53
2022-11-04T15:56:55.448Z,97613.44
2022-11-04T15:59:30.072Z,97614.78
2022-11-04T16:01:57.372Z,97625.72
2022-11-04T16:04:26.354Z,97618.84
2022-11-04T16:07:05.833Z,97631.13
2022-11-04T16:09:46.429Z,97636.53
2022-11-04T16:12:15.538Z,97639.25
2022-11-04T16:14:53.240Z,97635.13
2022-11-04T16:17:20.952Z,97639.56
2022-11-04T16:19:59.031Z,97647.44
2022-11-04T16:22:37.258Z,97653.75
2022-11-04T16:25:06.749Z,97655.03
2022-11-04T16:27:35.364Z,97664.66
2022-11-04T16:30:17.548Z,97666.72
2022-11-04T16:32:44.088Z,97676.38
2022-11-04T16:35:20.394Z,97678.22
2022-11-04T16:37:47.027Z,97671.97
2022-11-04T16:40:14.906Z,97676.13
2022-11-04T16:42:42.463Z,97677.91
2022-11-04T16:45:20.518Z,97678.13
2022-11-04T16:47:47.194Z,97681.75
2022-11-04T16:50:16.298Z,97682.47
2022-11-04T16:52:44.485Z,97680.03
2022-11-04T16:55:12.994Z,97677.75
2022-11-04T16:57:40.232Z,97671.84
2022-11-04T17:00:07.994Z,97676.28
2022-11-04T17:02:41.635Z,97680.50
2022-11-04T17:05:08.898Z,97677.16
2022-11-04T17:07:52.730Z,97681.66
2022-11-04T17:10:24.855Z,97684.50
2022-11-04T17:12:51.801Z,97684.75
2022-11-04T17:15:18.764Z,97682.00
2022-11-04T17:17:45.876Z,97685.53
2022-11-04T17:20:17.659Z,97686.50
2022-11-04T17:22:45.243Z,97691.75
2022-11-04T17:25:19.963Z,97691.06
2022-11-04T17:27:46.603Z,97696.25
2022-11-04T17:30:14.442Z,97697.09
2022-11-04T17:32:42.042Z,97692.84
2022-11-04T17:35:09.280Z,97702.50
2022-11-04T17:37:35.952Z,97698.13
2022-11-04T17:40:02.982Z,97702.41
2022-11-04T17:42:48.094Z,97705.94
2022-11-04T17:45:14.635Z,97703.47
2022-11-04T17:47:41.327Z,97713.09
2022-11-04T17:50:08.627Z,97708.84
2022-11-04T17:52:38.776Z,97715.09
2022-11-04T17:55:05.734Z,97712.56
2022-11-04T17:57:34.899Z,97721.34
2022-11-04T18:00:05.564Z,97723.81
2022-11-04T18:02:33.011Z,97727.00
2022-11-04T18:05:01.780Z,97726.91
2022-11-04T18:07:29.575Z,97728.44
2022-11-04T18:09:56.812Z,97729.06
2022-11-04T18:12:38.626Z,97725.47
2022-11-04T18:15:10.836Z,97726.34
2022-11-04T18:17:41.799Z,97732.38
2022-11-04T18:20:14.026Z,97729.81
2022-11-04T18:22:42.189Z,97738.66
2022-11-04T18:25:09.661Z,97733.50
2022-11-04T18:27:36.352Z,97732.66
2022-11-04T18:30:03.298Z,97733.69
2022-11-04T18:32:29.882Z,97731.88
2022-11-04T18:34:56.546Z,97736.19
2022-11-04T18:37:23.968Z,97731.97
2022-11-04T18:39:50.674Z,97742.44
2022-11-04T18:42:17.429Z,97737.13
2022-11-04T18:44:44.139Z,97736.34
2022-11-04T18:47:10.772Z,97742.44
2022-11-04T18:49:37.337Z,97743.22
2022-11-04T18:52:04.111Z,97745.81
2022-11-04T18:54:32.052Z,97751.06
2022-11-04T18:56:58.611Z,97755.59
2022-11-04T18:59:25.284Z,97747.81
2022-11-04T19:01:53.303Z,97753.09
2022-11-04T19:04:20.588Z,97759.13
2022-11-04T19:06:47.265Z,97765.13
2022-11-04T19:09:45.265Z,97775.72
2022-11-04T19:12:22.104Z,97774.72
2022-11-04T19:14:49.192Z,97784.25
2022-11-04T19:17:15.886Z,97783.25
2022-11-04T19:19:43.008Z,97790.97
2022-11-04T19:22:10.616Z,97791.53
2022-11-04T19:24:37.147Z,97800.38
2022-11-04T19:27:04.547Z,97798.63
2022-11-04T19:29:32.953Z,97801.00
2022-11-04T19:32:01.269Z,97800.91
2022-11-04T19:34:28.021Z,97809.44
2022-11-04T19:36:54.680Z,97800.66
2022-11-04T19:39:21.295Z,97809.53
2022-11-04T19:42:06.438Z,97807.72
2022-11-04T19:44:33.127Z,97810.31
2022-11-04T19:46:59.719Z,97816.41
2022-11-04T19:49:31.146Z,97824.81
2022-11-04T19:51:59.048Z,97824.75
2022-11-04T19:54:26.023Z,97833.53
2022-11-04T19:56:52.989Z,97834.31
2022-11-04T19:59:19.723Z,97835.13
2022-11-04T20:01:46.558Z,97842.25
2022-11-04T20:04:13.662Z,97848.28
2022-11-04T20:06:40.291Z,97852.84
2022-11-04T20:09:11.032Z,97851.13
2022-11-04T20:11:59.690Z,97865.16
2022-11-04T20:14:28.265Z,97859.91
2022-11-04T20:16:54.930Z,97868.59
2022-11-04T20:19:23.154Z,97870.41
2022-11-04T20:21:50.497Z,97873.94
2022-11-04T20:24:17.360Z,97879.25
2022-11-04T20:26:44.241Z,97885.28
2022-11-04T20:29:11.758Z,97888.13
2022-11-04T20:31:39.709Z,97892.56
2022-11-04T20:34:08.424Z,97896.00
2022-11-04T20:36:36.374Z,97891.88
2022-11-04T20:39:06.744Z,97897.16
2022-11-04T20:41:33.887Z,97899.91
2022-11-04T20:44:00.536Z,97898.03
2022-11-04T20:46:29.663Z,97914.13
2022-11-04T20:48:58.253Z,97907.22
2022-11-04T20:51:30.586Z,97914.22
2022-11-04T20:54:00.679Z,97917.81
2022-11-04T20:56:32.691Z,97913.38
2022-11-04T20:59:00.314Z,97913.38
2022-11-04T21:01:32.490Z,97920.44
2022-11-04T21:04:02.467Z,97923.09
2022-11-04T21:06:29.779Z,97924.66
2022-11-04T21:08:57.879Z,97923.78
2022-11-04T21:11:30.364Z,97933.28
2022-11-04T21:13:58.527Z,97930.81
2022-11-04T21:16:25.623Z,97930.75
2022-11-04T21:18:52.235Z,97942.88
2022-11-04T21:21:18.807Z,97941.03
2022-11-04T21:23:46.750Z,97937.63
2022-11-04T21:26:21.510Z,97946.31
2022-11-04T21:28:49.502Z,97949.66
2022-11-04T21:31:16.111Z,97950.78
2022-11-04T21:33:43.141Z,97942.06
2022-11-04T21:36:12.352Z,97940.34
2022-11-04T21:38:39.804Z,97939.44
2022-11-04T21:41:09.152Z,97941.94
2022-11-04T21:43:35.924Z,97945.44
2022-11-04T21:46:11.987Z,97945.69
2022-11-04T21:48:38.690Z,97951.78
2022-11-04T21:51:09.192Z,97951.13
2022-11-04T21:53:36.624Z,97956.22
2022-11-04T21:56:05.235Z,97957.84
2022-11-04T21:58:32.326Z,97957.03
2022-11-04T22:00:59.049Z,97967.69
2022-11-04T22:03:26.963Z,97960.66
2022-11-04T22:06:05.448Z,97972.84
2022-11-04T22:08:32.604Z,97964.88
2022-11-04T22:11:08.216Z,97977.25
2022-11-04T22:13:35.062Z,97972.09
2022-11-04T22:16:03.165Z,97975.44
2022-11-04T22:18:31.732Z,97974.31
2022-11-04T22:21:02.874Z,97985.97
2022-11-04T22:23:29.557Z,97981.72
2022-11-04T22:26:03.571Z,97976.38
2022-11-04T22:28:30.877Z,97984.34
2022-11-04T22:31:04.050Z,97978.34
2022-11-04T22:33:31.853Z,97987.16
2022-11-04T22:35:58.890Z,97989.72
2022-11-04T22:38:25.513Z,97992.16
2022-11-04T22:41:00.504Z,97989.47
2022-11-04T22:43:27.245Z,97995.69
2022-11-04T22:45:55.769Z,97990.63
2022-11-04T22:48:23.382Z,97992.25
2022-11-04T22:50:58.313Z,97990.53
2022-11-04T22:53:25.968Z,97993.94
2022-11-04T22:55:53.347Z,97992.50
2022-11-04T22:58:20.251Z,97989.78
2022-11-04T23:00:53.308Z,97991.72
2022-11-04T23:03:20.074Z,97996.97
2022-11-04T23:05:46.808Z,98000.50
2022-11-04T23:08:13.432Z,97994.22
2022-11-04T23:10:58.708Z,97992.63
2022-11-04T23:13:43.719Z,97992.34
2022-11-04T23:16:31.396Z,97999.53
2022-11-04T23:18:58.093Z,98001.44
2022-11-04T23:21:43.312Z,97997.06
2022-11-04T23:24:28.399Z,97998.03
2022-11-04T23:26:56.911Z,98006.63
2022-11-04T23:29:42.259Z,98004.78
2022-11-04T23:32:08.903Z,98013.53
2022-11-04T23:34:54.053Z,98012.63
2022-11-04T23:37:20.678Z,98016.06
2022-11-04T23:39:49.473Z,98023.19
2022-11-04T23:42:19.035Z,98031.88
2022-11-04T23:45:05.400Z,98022.06
2022-11-04T23:48:03.546Z,98029.09
2022-11-04T23:50:51.751Z,98036.28
2022-11-04T23:53:39.229Z,98043.31
2022-11-04T23:56:25.085Z,98043.28
2022-11-04T23:59:10.088Z,98045.00
